createdAt,value
2022-09-30T00:02:56.679Z,43.00
2022-09-30T00:10:22.235Z,45.93
2022-09-30T00:14:07.237Z,47.10
2022-09-30T00:17:39.870Z,44.93
2022-09-30T00:20:43.855Z,50.33
2022-09-30T00:23:55.357Z,51.13
2022-09-30T00:26:52.538Z,51.97
2022-09-30T00:30:45.264Z,51.77
2022-09-30T00:34:20.016Z,49.97
2022-09-30T00:37:23.045Z,50.60
2022-09-30T00:44:10.775Z,49.33
2022-09-30T00:47:35.534Z,47.23
2022-09-30T00:51:18.216Z,44.63
2022-09-30T00:54:18.568Z,46.47
2022-09-30T00:57:40.304Z,48.90
2022-09-30T01:00:47.556Z,53.37
2022-09-30T01:04:11.858Z,51.40
2022-09-30T01:08:10.462Z,47.43
2022-09-30T01:11:45.465Z,46.97
2022-09-30T01:15:09.646Z,49.03
2022-09-30T01:22:28.358Z,54.00
2022-09-30T01:26:09.203Z,52.87
2022-09-30T01:33:47.553Z,53.40
2022-09-30T01:37:29.339Z,55.00
2022-09-30T01:44:29.515Z,57.53
2022-09-30T01:47:46.323Z,56.30
2022-09-30T01:54:59.076Z,59.37
2022-09-30T01:58:10.682Z,61.23
2022-09-30T02:01:21.764Z,64.17
2022-09-30T02:11:41.608Z,63.10
2022-09-30T02:15:00.509Z,66.57
2022-09-30T02:22:08.642Z,60.67
2022-09-30T02:25:36.019Z,64.80
2022-09-30T02:28:52.805Z,65.63
2022-09-30T02:32:12.456Z,65.97
2022-09-30T02:39:14.434Z,67.73
2022-09-30T02:42:47.565Z,64.37
2022-09-30T02:46:07.250Z,64.63
2022-09-30T02:49:27.275Z,68.27
2022-09-30T02:52:47.103Z,69.27
2022-09-30T02:55:56.659Z,66.90
2022-09-30T02:59:56.113Z,70.03
2022-09-30T03:02:56.395Z,72.30
2022-09-30T03:06:08.174Z,68.77
2022-09-30T03:13:04.207Z,77.07
2022-09-30T03:16:58.634Z,76.60
2022-09-30T03:27:51.542Z,73.83
2022-09-30T03:31:12.621Z,74.73
2022-09-30T03:34:59.398Z,67.17
2022-09-30T03:38:20.161Z,75.17
2022-09-30T03:41:48.459Z,76.93
2022-09-30T03:45:12.318Z,79.13
2022-09-30T03:48:47.220Z,78.97
2022-09-30T03:52:38.445Z,82.03
2022-09-30T03:56:12.996Z,83.90
2022-09-30T03:59:48.401Z,78.90
2022-09-30T04:06:39.309Z,80.43
2022-09-30T04:09:52.263Z,78.27
2022-09-30T04:17:19.195Z,76.47
2022-09-30T04:20:29.354Z,84.17
2022-09-30T04:23:35.952Z,85.70
2022-09-30T04:31:15.541Z,87.37
2022-09-30T04:37:39.675Z,74.47
2022-09-30T04:41:06.702Z,83.87
2022-09-30T04:44:21.365Z,81.23
2022-09-30T04:47:33.938Z,83.63
2022-09-30T04:51:13.537Z,88.53
2022-09-30T04:54:25.297Z,86.03
2022-09-30T04:57:42.651Z,92.30
2022-09-30T05:01:01.672Z,89.00
2022-09-30T05:04:16.611Z,90.20
2022-09-30T05:08:09.318Z,92.20
2022-09-30T05:11:22.933Z,93.97
2022-09-30T05:14:51.427Z,92.90
2022-09-30T05:18:22.116Z,97.93
2022-09-30T05:21:25.535Z,102.33
2022-09-30T05:25:14.162Z,96.93
2022-09-30T05:31:40.565Z,93.40
2022-09-30T05:38:25.152Z,98.67
2022-09-30T05:42:23.132Z,101.10
2022-09-30T05:45:35.395Z,96.57
2022-09-30T05:48:45.847Z,95.60
2022-09-30T05:51:57.415Z,95.27
2022-09-30T05:55:09.631Z,91.43
2022-09-30T05:58:22.113Z,94.80
2022-09-30T06:01:30.076Z,91.80
2022-09-30T06:04:39.472Z,91.10
2022-09-30T06:07:58.328Z,89.73
2022-09-30T06:11:07.814Z,90.70
2022-09-30T06:14:19.267Z,93.23
2022-09-30T06:25:16.269Z,97.73
2022-09-30T06:28:32.000Z,96.83
2022-09-30T06:31:40.515Z,99.10
2022-09-30T06:35:00.683Z,100.13
2022-09-30T06:38:26.722Z,104.10
2022-09-30T06:41:52.025Z,110.80
2022-09-30T06:45:00.633Z,103.53
2022-09-30T06:48:39.963Z,106.67
2022-09-30T06:52:27.883Z,101.00
2022-09-30T06:56:17.782Z,102.78
2022-09-30T07:00:01.736Z,98.43
2022-09-30T07:09:59.923Z,96.03
2022-09-30T07:13:49.537Z,94.28
2022-09-30T07:17:06.146Z,91.45
2022-09-30T07:23:56.749Z,87.43
2022-09-30T07:29:15.348Z,89.18
2022-09-30T07:31:43.740Z,87.93
2022-09-30T07:34:12.069Z,88.55
2022-09-30T07:36:45.213Z,84.57
2022-09-30T07:39:13.432Z,77.68
2022-09-30T07:41:44.285Z,78.35
2022-09-30T07:44:15.422Z,75.78
2022-09-30T07:46:45.187Z,74.15
2022-09-30T07:49:26.202Z,74.22
2022-09-30T07:51:58.685Z,69.28
2022-09-30T07:54:29.312Z,63.42
2022-09-30T07:57:09.643Z,66.88
2022-09-30T07:59:44.799Z,65.68
2022-09-30T08:02:16.998Z,64.47
2022-09-30T08:04:45.597Z,56.70
2022-09-30T08:07:15.407Z,54.72
2022-09-30T08:09:43.773Z,53.28
2022-09-30T08:12:12.088Z,49.03
2022-09-30T08:14:41.885Z,48.22
2022-09-30T08:17:10.080Z,44.25
2022-09-30T08:19:41.428Z,41.15
2022-09-30T08:36:41.069Z,33.42
2022-09-30T08:40:04.713Z,32.53
2022-09-30T08:43:55.874Z,29.50
2022-09-30T08:47:09.101Z,27.83
2022-09-30T08:57:20.664Z,25.23
2022-09-30T09:00:26.749Z,25.40
2022-09-30T09:03:34.996Z,22.35
2022-09-30T09:10:50.262Z,20.08
2022-09-30T09:14:14.192Z,20.85
2022-09-30T09:17:34.622Z,20.63
2022-09-30T09:20:41.909Z,18.40
2022-09-30T09:23:55.843Z,16.20
2022-09-30T09:26:49.342Z,14.50
2022-09-30T09:30:56.365Z,14.65
2022-09-30T09:34:20.173Z,13.50
2022-09-30T09:37:58.376Z,13.60
2022-09-30T09:41:05.478Z,12.68
2022-09-30T09:44:37.086Z,10.85
2022-09-30T09:48:00.716Z,8.93
2022-09-30T09:51:12.570Z,8.50
2022-09-30T09:54:22.802Z,6.68
2022-09-30T09:57:53.082Z,5.03
2022-09-30T10:01:22.507Z,5.47
2022-09-30T10:04:52.319Z,4.68
2022-09-30T10:08:25.697Z,4.68
2022-09-30T10:11:36.422Z,4.65
2022-09-30T10:14:50.054Z,3.28
2022-09-30T10:18:03.217Z,3.90
2022-09-30T10:22:30.291Z,4.30
2022-09-30T10:25:03.646Z,2.70
2022-09-30T10:31:37.518Z,2.58
2022-09-30T10:35:14.363Z,3.55
2022-09-30T10:38:44.018Z,3.28
2022-09-30T10:49:07.153Z,2.65
2022-09-30T10:52:35.484Z,3.13
2022-09-30T10:56:02.039Z,2.88
2022-09-30T10:59:29.248Z,2.95
2022-09-30T11:10:14.384Z,3.42
2022-09-30T11:13:59.029Z,3.78
2022-09-30T11:17:36.563Z,3.80
2022-09-30T11:20:56.163Z,3.97
2022-09-30T11:24:01.419Z,3.50
2022-09-30T11:27:17.355Z,3.08
2022-09-30T11:45:34.419Z,2.85
2022-09-30T11:48:35.120Z,2.63
2022-09-30T11:51:19.729Z,2.90
2022-09-30T11:54:04.532Z,2.65
2022-09-30T11:56:42.683Z,3.45
2022-09-30T11:59:19.870Z,3.00
2022-09-30T12:01:51.221Z,3.50
2022-09-30T12:04:23.456Z,3.00
2022-09-30T12:06:58.979Z,2.80
2022-09-30T12:09:30.244Z,2.38
2022-09-30T12:12:03.186Z,2.65
2022-09-30T12:14:37.011Z,2.40
2022-09-30T12:17:13.213Z,2.63
2022-09-30T12:19:46.708Z,2.72
2022-09-30T12:22:24.494Z,3.20
2022-09-30T12:24:52.808Z,1.92
2022-09-30T12:27:26.422Z,2.53
2022-09-30T12:30:21.390Z,2.08
2022-09-30T12:33:26.196Z,1.48
2022-09-30T12:36:21.811Z,1.80
2022-09-30T12:39:23.448Z,1.85
2022-09-30T12:42:07.248Z,1.60
2022-09-30T12:45:10.651Z,1.90
2022-09-30T12:47:46.150Z,1.50
2022-09-30T12:50:17.933Z,1.60
2022-09-30T12:52:46.377Z,1.55
2022-09-30T12:55:25.595Z,1.45
2022-09-30T12:57:55.160Z,1.65
2022-09-30T13:00:25.012Z,1.35
2022-09-30T13:02:58.086Z,1.60
2022-09-30T13:05:54.078Z,1.83
2022-09-30T13:08:48.466Z,1.52
2022-09-30T13:11:39.076Z,1.35
2022-09-30T13:14:33.729Z,1.25
2022-09-30T13:17:26.494Z,0.95
2022-09-30T13:19:57.554Z,0.80
2022-09-30T13:22:59.231Z,1.23
2022-09-30T13:25:51.897Z,1.20
2022-09-30T13:28:38.057Z,1.23
2022-09-30T13:31:24.948Z,2.38
2022-09-30T13:34:11.166Z,1.45
2022-09-30T13:36:57.825Z,1.10
2022-09-30T13:39:28.377Z,0.95
2022-09-30T13:42:04.562Z,0.70
2022-09-30T13:44:45.852Z,4.70
2022-09-30T13:47:21.240Z,7.38
2022-09-30T13:49:56.393Z,1.17
2022-09-30T13:52:29.049Z,0.52
2022-09-30T13:55:04.012Z,0.50
2022-09-30T13:57:49.660Z,0.85
2022-09-30T14:00:21.520Z,0.52
2022-09-30T14:03:27.721Z,0.70
2022-09-30T14:06:05.267Z,0.80
2022-09-30T14:09:02.629Z,0.60
2022-09-30T14:12:03.755Z,0.70
2022-09-30T14:15:12.891Z,0.80
2022-09-30T14:17:55.881Z,0.70
2022-09-30T14:20:40.846Z,0.60
2022-09-30T14:23:15.437Z,0.63
2022-09-30T14:25:52.472Z,0.77
2022-09-30T14:28:30.633Z,1.05
2022-09-30T14:31:09.348Z,1.20
2022-09-30T14:33:39.673Z,1.35
2022-09-30T14:36:14.818Z,0.57
2022-09-30T14:38:47.314Z,0.68
2022-09-30T14:41:21.426Z,0.60
2022-09-30T14:43:53.901Z,0.50
2022-09-30T14:46:31.137Z,0.52
2022-09-30T14:49:04.651Z,0.45
2022-09-30T14:51:43.535Z,0.60
2022-09-30T14:54:19.823Z,0.98
2022-09-30T14:56:48.485Z,0.90
2022-09-30T14:59:22.114Z,0.80
2022-09-30T15:01:55.454Z,0.85
2022-09-30T15:04:28.866Z,0.80
2022-09-30T15:07:17.988Z,0.65
2022-09-30T15:13:58.818Z,0.57
2022-09-30T15:17:20.862Z,0.80
2022-09-30T15:19:50.909Z,0.60
2022-09-30T15:22:59.821Z,1.00
2022-09-30T15:25:37.308Z,0.70
2022-09-30T15:28:09.009Z,0.82
2022-09-30T15:30:38.483Z,1.10
2022-09-30T15:33:07.569Z,0.65
2022-09-30T15:35:37.323Z,0.60
2022-09-30T15:38:11.547Z,0.50
2022-09-30T15:40:50.040Z,0.70
2022-09-30T15:43:40.281Z,0.50
2022-09-30T15:46:19.874Z,1.02
2022-09-30T15:48:48.726Z,0.73
2022-09-30T15:51:33.247Z,0.90
2022-09-30T15:54:03.667Z,0.77
2022-09-30T15:56:36.215Z,0.60
2022-09-30T15:59:06.658Z,0.88
2022-09-30T16:01:39.089Z,0.80
2022-09-30T16:04:14.368Z,0.82
2022-09-30T16:06:49.437Z,0.60
2022-09-30T16:09:24.634Z,0.65
2022-09-30T16:12:05.324Z,0.60
2022-09-30T16:14:37.335Z,0.70
2022-09-30T16:17:07.860Z,0.88
2022-09-30T16:19:36.269Z,0.80
2022-09-30T16:23:11.458Z,0.85
2022-09-30T16:26:32.084Z,1.08
2022-09-30T16:29:48.695Z,1.67
2022-09-30T16:33:07.004Z,1.13
2022-09-30T16:39:37.413Z,0.73
2022-09-30T16:42:51.672Z,0.57
2022-09-30T16:50:05.322Z,0.70
2022-09-30T16:53:25.584Z,0.50
2022-09-30T16:57:28.385Z,0.47
2022-09-30T17:01:30.137Z,0.73
2022-09-30T17:05:06.239Z,0.43
2022-09-30T17:08:32.899Z,0.50
2022-09-30T17:11:53.622Z,0.63
2022-09-30T17:15:02.158Z,0.47
2022-09-30T17:22:28.895Z,0.60
2022-09-30T17:25:56.236Z,0.50
2022-09-30T17:29:33.024Z,0.70
2022-09-30T17:36:10.404Z,0.55
2022-09-30T17:39:42.180Z,0.55
2022-09-30T17:43:17.263Z,0.50
2022-09-30T17:46:10.957Z,0.75
2022-09-30T17:49:24.187Z,0.63
2022-09-30T17:52:39.033Z,0.52
2022-09-30T17:56:38.804Z,0.57
2022-09-30T17:59:39.618Z,0.52
2022-09-30T18:03:01.673Z,0.50
2022-09-30T18:06:33.875Z,0.57
2022-09-30T18:09:57.489Z,0.60
2022-09-30T18:13:15.177Z,0.50
2022-09-30T18:16:41.700Z,0.65
2022-09-30T18:19:51.568Z,0.70
2022-09-30T18:23:05.128Z,0.50
2022-09-30T18:26:33.162Z,0.68
2022-09-30T18:29:44.066Z,0.43
2022-09-30T18:33:13.987Z,0.50
2022-09-30T18:39:41.277Z,0.40
2022-09-30T18:46:18.649Z,0.75
2022-09-30T18:49:39.844Z,0.43
2022-09-30T18:59:47.954Z,0.57
2022-09-30T19:02:50.789Z,0.70
2022-09-30T19:06:56.143Z,0.50
2022-09-30T19:10:53.061Z,0.60
2022-09-30T19:14:14.297Z,0.40
2022-09-30T19:17:36.360Z,0.55
2022-09-30T19:20:56.802Z,0.85
2022-09-30T19:27:15.399Z,0.40
2022-09-30T19:31:08.638Z,0.55
2022-09-30T19:34:28.348Z,0.70
2022-09-30T19:38:37.343Z,0.40
2022-09-30T19:41:47.437Z,0.52
2022-09-30T19:45:13.632Z,0.65
2022-09-30T19:48:59.384Z,0.47
2022-09-30T19:52:34.691Z,0.60
2022-09-30T19:55:50.606Z,0.40
2022-09-30T19:58:52.157Z,0.40
2022-09-30T20:02:29.863Z,0.50
2022-09-30T20:05:38.493Z,0.70
2022-09-30T20:08:06.739Z,0.60
2022-09-30T20:10:34.922Z,0.90
2022-09-30T20:13:03.435Z,0.70
2022-09-30T20:15:49.021Z,0.90
2022-09-30T20:18:20.166Z,0.80
2022-09-30T20:20:50.495Z,0.63
2022-09-30T20:23:19.331Z,0.90
2022-09-30T20:26:18.616Z,0.82
2022-09-30T20:29:31.849Z,0.88
2022-09-30T20:32:27.219Z,0.73
2022-09-30T20:34:57.890Z,1.00
2022-09-30T20:37:27.588Z,0.90
2022-09-30T20:40:03.885Z,1.30
2022-09-30T20:42:40.216Z,0.98
2022-09-30T20:45:18.220Z,0.93
2022-09-30T20:47:48.833Z,1.65
2022-09-30T20:50:57.170Z,0.98
2022-09-30T20:53:31.837Z,1.00
2022-09-30T20:56:08.230Z,1.50
2022-09-30T20:58:49.372Z,1.98
2022-09-30T21:01:20.083Z,1.63
2022-09-30T21:03:57.906Z,2.00
2022-09-30T21:06:27.910Z,2.00
2022-09-30T21:09:37.359Z,1.23
2022-09-30T21:12:17.890Z,1.92
2022-09-30T21:14:46.142Z,2.30
2022-09-30T21:17:14.308Z,1.77
2022-09-30T21:19:42.796Z,2.33
2022-09-30T21:22:11.269Z,1.77
2022-09-30T21:24:40.897Z,2.50
2022-09-30T21:27:09.794Z,1.58
2022-09-30T21:29:38.005Z,2.30
2022-09-30T21:32:06.356Z,1.70
2022-09-30T21:34:34.858Z,2.38
2022-09-30T21:37:03.090Z,1.92
2022-09-30T21:39:31.329Z,2.38
2022-09-30T21:42:00.976Z,2.50
2022-09-30T21:44:29.165Z,2.92
2022-09-30T21:46:58.441Z,1.90
2022-09-30T21:49:26.629Z,1.95
2022-09-30T21:51:55.346Z,2.38
2022-09-30T21:54:23.789Z,2.15
2022-09-30T21:56:52.199Z,2.58
2022-09-30T22:02:52.316Z,2.78
2022-09-30T22:05:22.254Z,2.67
2022-09-30T22:07:57.657Z,2.28
2022-09-30T22:10:30.227Z,3.25
2022-09-30T22:12:58.450Z,1.48
2022-09-30T22:15:28.254Z,2.30
2022-09-30T22:17:56.417Z,2.20
2022-09-30T22:20:24.623Z,3.33
2022-09-30T22:22:52.820Z,1.98
2022-09-30T22:25:22.386Z,2.78
2022-09-30T22:27:51.848Z,2.78
2022-09-30T22:30:20.986Z,2.97
2022-09-30T22:33:11.089Z,2.30
2022-09-30T22:35:56.800Z,2.65
2022-09-30T22:38:25.067Z,2.45
2022-09-30T22:40:55.829Z,3.38
2022-09-30T22:46:36.230Z,4.80
2022-09-30T22:50:14.457Z,3.10
2022-09-30T22:53:31.216Z,4.68
2022-09-30T22:56:54.996Z,4.90
2022-09-30T23:03:44.018Z,3.88
2022-09-30T23:07:09.099Z,4.63
2022-09-30T23:10:16.303Z,4.13
2022-09-30T23:13:32.065Z,4.57
2022-09-30T23:23:58.580Z,4.00
2022-09-30T23:26:48.039Z,3.35
2022-09-30T23:30:00.970Z,3.65
2022-09-30T23:33:03.473Z,4.93
2022-09-30T23:36:19.431Z,4.00
2022-09-30T23:39:28.331Z,4.43
2022-09-30T23:43:01.313Z,3.88
2022-09-30T23:47:07.342Z,4.35
2022-09-30T23:49:36.978Z,3.83
2022-09-30T23:52:10.541Z,5.00
2022-09-30T23:54:41.237Z,4.50
2022-09-30T23:57:10.647Z,4.13
2022-09-30T23:59:39.054Z,4.65
